Global Enterprise — 3FCJ6 — position and weather

sailwx.info

Track history (hours):
 
Tides and Currents Weather Stations Pressure Air Temp Water Temp Dewpoint Dewpoint Depression Visibility Wind Speed Wind Dir Waves Ship Positions

Global Enterprise

Last reported at 2014-Jul-31 11:19 UTC. Time now 2014-Aug-20 22:28 UTC.
Position N 34°51' E 119°46'.
Warning: this ship's position is 20 days out of date.

Length 290 m; draft 9.8 m.

Type: Cargo ship. MMSI: 356308000.

Date/timePositionNaut miles runAvg speedWind from/ knotsBaromVisibWave heightAir tempDewpointWater temp
2014-Jul-31 11:19N 34°51' E 119°46'810.0
2014-Jul-31 10:33N 34°48' E 119°38'9 8.6
2014-Jul-31 09:33N 34°45' E 119°28'3 3.3
2014-Jul-31 08:32N 34°45' E 119°24'0 0.0
2014-Jul-31 07:26N 34°45' E 119°24'0 0.0
2014-Jul-31 06:32N 34°45' E 119°24'0 0.0
2014-Jul-31 05:32N 34°45' E 119°24'0 0.0
2014-Jul-31 04:32N 34°45' E 119°24'0 0.0
2014-Jul-31 03:32N 34°45' E 119°24'0 0.0
2014-Jul-31 02:32N 34°45' E 119°24'0 0.0
2014-Jul-31 01:32N 34°45' E 119°24'0 0.0
2014-Jul-31 00:32N 34°45' E 119°24'0 0.0
2014-Jul-30 23:32N 34°45' E 119°24'0 0.0
2014-Jul-30 22:32N 34°45' E 119°24'0 0.0
2014-Jul-30 21:32N 34°45' E 119°24'0 0.0
2014-Jul-30 20:32N 34°45' E 119°24'0 0.0
2014-Jul-30 19:32N 34°45' E 119°24'0 0.0
2014-Jul-30 18:26N 34°45' E 119°24'0 0.0
2014-Jul-30 17:32N 34°45' E 119°24'0 0.0
2014-Jul-30 16:32N 34°45' E 119°24'0 0.0
2014-Jul-30 15:26N 34°45' E 119°24'0 0.0
2014-Jul-30 14:32N 34°45' E 119°24'0 0.0
2014-Jul-30 13:32N 34°45' E 119°24'0 0.0
2014-Jul-30 12:32N 34°45' E 119°24'0 0.0
2014-Jul-30 11:32N 34°45' E 119°24'0 0.0
2014-Jul-30 10:32N 34°45' E 119°24'0 0.0
2014-Jul-30 09:32N 34°45' E 119°24'0 0.0
2014-Jul-30 08:32N 34°45' E 119°24'0 0.0
2014-Jul-30 07:32N 34°45' E 119°24'0 0.0
2014-Jul-30 06:32N 34°45' E 119°24'0 0.0
2014-Jul-30 05:32N 34°45' E 119°24'0 0.0
2014-Jul-30 04:32N 34°45' E 119°24'0 0.0
2014-Jul-30 03:32N 34°45' E 119°24'0 0.0
2014-Jul-30 02:32N 34°45' E 119°24'0 0.0
2014-Jul-30 01:32N 34°45' E 119°24'0 0.0
2014-Jul-30 00:32N 34°45' E 119°24'0 0.0
2014-Jul-29 23:32N 34°45' E 119°24'0 0.0
2014-Jul-29 22:32N 34°45' E 119°24'0 0.0
2014-Jul-29 21:32N 34°45' E 119°24'0 0.0
2014-Jul-29 20:32N 34°45' E 119°24'0 0.0
2014-Jul-29 19:32N 34°45' E 119°24'0 0.0
2014-Jul-29 18:32N 34°45' E 119°24'0 0.0
2014-Jul-29 17:32N 34°45' E 119°24'0 0.0
2014-Jul-29 16:32N 34°45' E 119°24'0 0.0
2014-Jul-29 15:32N 34°45' E 119°24'0 0.0
2014-Jul-29 14:33N 34°45' E 119°24'7 7.0
2014-Jul-29 13:33N 34°45' E 119°33'8 8.1
2014-Jul-29 12:32N 34°49' E 119°41'1211.4
2014-Jul-29 11:28N 34°55' E 119°55'1010.3
2014-Jul-29 10:30N 35°00' E 120°05'8 8.8
2014-Jul-29 09:33N 35°08' E 120°06'1212.5
2014-Jul-29 08:33N 35°20' E 120°00'1211.9
2014-Jul-29 07:33N 35°29' E 119°50'6 3.1
2014-Jul-29 05:29N 35°35' E 119°47'0 0.0
2014-Jul-28 15:08N 35°35' E 119°47'0 0.0
2014-Jul-28 14:05N 35°35' E 119°47'0 0.0
2014-Jul-28 13:29N 35°35' E 119°47'0 0.0
2014-Jul-28 10:11N 35°35' E 119°47'0 0.0
2014-Jul-28 09:29N 35°35' E 119°47'41 6.8
2014-Jul-28 03:29N 35°17' E 120°32'  
Track history (hours):
 
Tides and Currents Weather Stations Pressure Air Temp Water Temp Dewpoint Dewpoint Depression Visibility Wind Speed Wind Dir Waves Ship Positions

Global Enterprise

Last reported at 2014-Jul-31 11:19 UTC. Time now 2014-Aug-20 22:28 UTC.
Position N 34°51' E 119°46'.
Warning: this ship's position is 20 days out of date.

Length 290 m; draft 9.8 m.

Type: Cargo ship. MMSI: 356308000.

Date/timePositionNaut miles runAvg speedWind from/ knotsBaromVisibWave heightAir tempDewpointWater temp
2014-Jul-31 11:19N 34°51' E 119°46'810.0
2014-Jul-31 10:33N 34°48' E 119°38'9 8.6
2014-Jul-31 09:33N 34°45' E 119°28'3 3.3
2014-Jul-31 08:32N 34°45' E 119°24'0 0.0
2014-Jul-31 07:26N 34°45' E 119°24'0 0.0
2014-Jul-31 06:32N 34°45' E 119°24'0 0.0
2014-Jul-31 05:32N 34°45' E 119°24'0 0.0
2014-Jul-31 04:32N 34°45' E 119°24'0 0.0
2014-Jul-31 03:32N 34°45' E 119°24'0 0.0
2014-Jul-31 02:32N 34°45' E 119°24'0 0.0
2014-Jul-31 01:32N 34°45' E 119°24'0 0.0
2014-Jul-31 00:32N 34°45' E 119°24'0 0.0
2014-Jul-30 23:32N 34°45' E 119°24'0 0.0
2014-Jul-30 22:32N 34°45' E 119°24'0 0.0
2014-Jul-30 21:32N 34°45' E 119°24'0 0.0
2014-Jul-30 20:32N 34°45' E 119°24'0 0.0
2014-Jul-30 19:32N 34°45' E 119°24'0 0.0
2014-Jul-30 18:26N 34°45' E 119°24'0 0.0
2014-Jul-30 17:32N 34°45' E 119°24'0 0.0
2014-Jul-30 16:32N 34°45' E 119°24'0 0.0
2014-Jul-30 15:26N 34°45' E 119°24'0 0.0
2014-Jul-30 14:32N 34°45' E 119°24'0 0.0
2014-Jul-30 13:32N 34°45' E 119°24'0 0.0
2014-Jul-30 12:32N 34°45' E 119°24'0 0.0
2014-Jul-30 11:32N 34°45' E 119°24'0 0.0
2014-Jul-30 10:32N 34°45' E 119°24'0 0.0
2014-Jul-30 09:32N 34°45' E 119°24'0 0.0
2014-Jul-30 08:32N 34°45' E 119°24'0 0.0
2014-Jul-30 07:32N 34°45' E 119°24'0 0.0
2014-Jul-30 06:32N 34°45' E 119°24'0 0.0
2014-Jul-30 05:32N 34°45' E 119°24'0 0.0
2014-Jul-30 04:32N 34°45' E 119°24'0 0.0
2014-Jul-30 03:32N 34°45' E 119°24'0 0.0
2014-Jul-30 02:32N 34°45' E 119°24'0 0.0
2014-Jul-30 01:32N 34°45' E 119°24'0 0.0
2014-Jul-30 00:32N 34°45' E 119°24'0 0.0
2014-Jul-29 23:32N 34°45' E 119°24'0 0.0
2014-Jul-29 22:32N 34°45' E 119°24'0 0.0
2014-Jul-29 21:32N 34°45' E 119°24'0 0.0
2014-Jul-29 20:32N 34°45' E 119°24'0 0.0
2014-Jul-29 19:32N 34°45' E 119°24'0 0.0
2014-Jul-29 18:32N 34°45' E 119°24'0 0.0
2014-Jul-29 17:32N 34°45' E 119°24'0 0.0
2014-Jul-29 16:32N 34°45' E 119°24'0 0.0
2014-Jul-29 15:32N 34°45' E 119°24'0 0.0
2014-Jul-29 14:33N 34°45' E 119°24'7 7.0
2014-Jul-29 13:33N 34°45' E 119°33'8 8.1
2014-Jul-29 12:32N 34°49' E 119°41'1211.4
2014-Jul-29 11:28N 34°55' E 119°55'1010.3
2014-Jul-29 10:30N 35°00' E 120°05'8 8.8
2014-Jul-29 09:33N 35°08' E 120°06'1212.5
2014-Jul-29 08:33N 35°20' E 120°00'1211.9
2014-Jul-29 07:33N 35°29' E 119°50'6 3.1
2014-Jul-29 05:29N 35°35' E 119°47'0 0.0
2014-Jul-28 15:08N 35°35' E 119°47'0 0.0
2014-Jul-28 14:05N 35°35' E 119°47'0 0.0
2014-Jul-28 13:29N 35°35' E 119°47'0 0.0
2014-Jul-28 10:11N 35°35' E 119°47'0 0.0
2014-Jul-28 09:29N 35°35' E 119°47'41 6.8
2014-Jul-28 03:29N 35°17' E 120°32'  

Dump ship's entire track history